Airfield :
LOGIN :

Register | Disclaimer

   EN    FR    IT 

 










Legend :    VFR   Marginal VFR   IFR   Intensive IFR   Very Intensive IFR
Visi :
Ceiling :
>= 8 km
>= 3000ft
5 to 8 km
1000 to 3000 ft
1500m to 5 km
500 to 1000 ft
800 to 1500m
200 to 500 ft
< 800m
< 200 ft
Symbols :   Thunderstorms  Fog  Heavy snow  Heavy precipitations  Wind > 20 kt
SIGMETs :     Misc.  Thunderstorms  Icing  Turbulence  Mountain Waves  Volcanic Ashes






- Airport Elevation : 670 ft
- IATA code : MSQ


UMMS - Minsk - 2

CURRENT METAR :
  • 040700Z 16004MPS 9999 BKN033 14/08 Q1002 R13L/CLRD// R13R/////// NOSIG

EXPIRED METARs :
  • 040630Z 17002MPS 9999 BKN022 14/08 Q1002 R13L/CLRD// R13R/////// NOSIG
  • 040600Z 18002MPS 150V220 9999 SCT017 13/09 Q1002 R13L/CLRD// R13R/////// NOSIG
  • 040530Z 19002MPS 9999 SCT036 13/09 Q1002 R13L/290055 R13R/////// NOSIG
  • 040500Z VRB01MPS 9999 SCT036 12/09 Q1002 R13L/290055 R13R/////// NOSIG
  • 040430Z VRB01MPS CAVOK 11/09 Q1002 R13L/290055 R13R/////// NOSIG

TAF TAF UMMS
Valid from the 04 at 06:00 until the 05 at 06:00 UTC


040509Z 0406/0506 14005G10MPS 9999 BKN015
TEMPO 0406/0421 16009G14MPS 1200 TSRA BKN005 BKN020CB
TEMPO 0421/0506 VRB02MPS 0300 FG SCT002



MET'MAP, your aeronautical weather chart ! - Copyright ORBIFLY December 2007 - Disclaimer

ORBIFLY MET'MAP TEAM :

Programming & Development : Alexandra Zaïnal
Concept & original design : Baudouin d'Aumeries
Assistance for programming : Marc-Olivier Méhu
Technical & hardware support : Manuel Goepfert

Contact : metmap@orbifly.com




SOURCES & CREDITS :

   NOAA